Disclaimer

Please do not use the information listed here in-flight or in-navigation, as they are not provided to us by the airports but are provided by volunteers, so they might be outdated.

Search


Regions


Airport information page

Radio informations:
LA SERENA TWR - 118.6 MHz
RDO - 127.3 MHz
Ground (GND) - 121.9 MHz
SANTIAGO APP - 128.1 MHz

Airport informations:
Latitude: 29° 54' 58.44" S
Longitude: 071° 11' 58.28" W
Elevation: 481 feet - 147 meters
Operating hours: Remarks
Operating agency: Civil government, landing fees and diplomatic clearance may be required
Timezone: UTC-4(-3DT)
Fuel: Jet A1, without icing nhibitor.

100/130 MIL Spec, low lead, aviation gasoline (BLUE)

Runway information:
11/29 - 6358 x 148 feet< - >1938 x 45 meters
11R/29L - 4480 x 105 feet< - >1366 x 32 meters

Recent METARs:
SCSE 202000Z 28012KT 9999 FEW020 17/12 Q1014
SCSE 202000Z 28012KT 9999 FEW020 17/12 Q1014
SCSE 202100Z 29013KT 9999 FEW020 18/12 Q1014

Airport on the map: